Time;durP1;ratioP1;P1;durP2;ratioP2;P2;SDS_P1;SDS_P2;PMS_P1;PMS_P2;Temp;Humidity;BMP_temperature;BMP_pressure;BME280_temperature;BME280_humidity;BME280_pressure;Samples;Min_cycle;Max_cycle;Signal;HPM_P1;HPM_P2
2022/06/10 00:01:02;;;;;;;;;8.33;5.67;;;;;20.55;49.30;101648.03;5112938;27;45530;-67
2022/06/10 00:03:28;;;;;;;;;7.33;5.00;;;;;20.53;49.32;101638.97;5115851;27;46682;-69
2022/06/10 00:05:59;;;;;;;;;6.00;6.00;;;;;20.52;49.67;101642.59;5106835;27;45423;-69
2022/06/10 00:08:28;;;;;;;;;4.33;4.33;;;;;20.49;49.64;101637.19;5114595;27;45119;-66
2022/06/10 00:10:55;;;;;;;;;7.33;5.33;;;;;20.46;49.75;101639.91;5120528;27;45279;-68
2022/06/10 00:13:33;;;;;;;;;6.67;5.00;;;;;20.41;49.91;101620.00;5113691;27;47142;-68
2022/06/10 00:16:00;;;;;;;;;6.00;4.00;;;;;20.33;49.55;101620.00;5115176;27;45370;-70
2022/06/10 00:18:28;;;;;;;;;2.33;2.33;;;;;20.51;49.80;101639.88;5103654;27;45284;-69
2022/06/10 00:20:54;;;;;;;;;6.33;6.33;;;;;20.51;49.91;101645.31;5113133;27;45273;-71
2022/06/10 00:23:21;;;;;;;;;3.67;3.00;;;;;20.49;49.80;101641.69;5107177;27;45634;-67
2022/06/10 00:25:46;;;;;;;;;9.00;7.33;;;;;20.50;49.60;101640.81;5111287;27;45513;-67
2022/06/10 00:28:13;;;;;;;;;6.00;5.33;;;;;20.50;49.82;101640.81;5114854;27;45225;-67
2022/06/10 00:30:39;;;;;;;;;5.67;5.67;;;;;20.44;50.13;101637.19;5115459;27;45524;-69
2022/06/10 00:33:06;;;;;;;;;4.67;4.67;;;;;20.44;49.89;101629.03;5113183;27;45589;-68
2022/06/10 00:35:33;;;;;;;;;12.33;7.33;;;;;20.35;49.87;101620.00;5120529;27;45584;-67
2022/06/10 00:38:00;;;;;;;;;7.00;7.00;;;;;20.44;49.69;101631.75;5102855;27;45429;-67
2022/06/10 00:40:30;;;;;;;;;8.67;5.00;;;;;20.38;50.24;101630.84;5103174;27;45548;-69
2022/06/10 00:42:56;;;;;;;;;3.67;3.00;;;;;20.33;50.38;101636.28;5109957;27;45601;-70
2022/06/10 00:45:50;;;;;;;;;5.00;4.00;;;;;20.29;50.30;101633.56;5114608;27;45354;-67
2022/06/10 00:48:23;;;;;;;;;4.00;4.00;;;;;20.30;50.30;101628.13;5112097;27;45434;-68
2022/06/10 00:50:50;;;;;;;;;6.00;6.00;;;;;20.29;50.36;101630.84;5112118;27;45422;-68
2022/06/10 00:53:19;;;;;;;;;5.00;5.00;;;;;20.28;50.47;101621.81;5113671;27;45446;-65
2022/06/10 00:55:48;;;;;;;;;4.00;4.00;;;;;20.29;50.58;101618.16;5118308;27;44975;-69
2022/06/10 00:58:31;;;;;;;;;8.00;4.33;;;;;20.33;50.36;101620.00;5127782;27;45146;-69
2022/06/10 01:00:57;;;;;;;;;4.00;2.33;;;;;20.26;50.31;101607.34;5128786;27;46514;-69
2022/06/10 01:03:23;;;;;;;;;4.67;4.67;;;;;20.31;50.47;101616.38;5112648;27;45289;-67
2022/06/10 01:05:48;;;;;;;;;5.00;3.00;;;;;19.85;50.30;101559.41;5115403;27;45344;-69
2022/06/10 01:08:17;;;;;;;;;4.00;4.00;;;;;20.25;50.56;101619.97;5115999;27;45203;-68
2022/06/10 01:11:05;;;;;;;;;5.33;5.00;;;;;20.26;50.62;101618.19;5107532;27;45196;-66
2022/06/10 01:13:51;;;;;;;;;5.00;3.67;;;;;20.23;50.58;101613.66;5121637;27;45293;-70
2022/06/10 01:16:31;;;;;;;;;4.00;4.00;;;;;20.23;50.55;101616.38;5112989;27;45227;-65
2022/06/10 01:19:18;;;;;;;;;5.33;4.33;;;;;20.21;50.72;101615.47;5119395;27;45618;-69
2022/06/10 01:22:20;;;;;;;;;4.00;4.00;;;;;20.18;50.81;101614.56;5119566;27;45283;-68
2022/06/10 01:24:46;;;;;;;;;7.33;3.33;;;;;20.20;50.76;101620.91;5115022;27;45165;-68
2022/06/10 01:27:48;;;;;;;;;8.67;5.00;;;;;20.19;50.64;101616.38;5128084;27;45353;-68
2022/06/10 01:30:30;;;;;;;;;5.00;4.00;;;;;20.16;50.53;101616.34;5114199;27;45103;-67
2022/06/10 01:33:08;;;;;;;;;5.00;3.33;;;;;20.09;51.02;101620.88;5104106;27;48971;-69
2022/06/10 01:35:33;;;;;;;;;5.33;4.33;;;;;20.07;51.20;101625.41;5107382;27;45842;-67
2022/06/10 01:38:07;;;;;;;;;5.00;4.00;;;;;20.06;51.02;101610.94;5109377;27;45309;-68
2022/06/10 01:40:45;;;;;;;;;3.00;3.00;;;;;19.91;50.95;101596.44;5104295;27;45560;-68
2022/06/10 01:43:11;;;;;;;;;4.33;3.00;;;;;20.03;51.09;101623.59;5112489;27;45523;-68
2022/06/10 01:46:00;;;;;;;;;5.00;3.00;;;;;20.01;51.48;101612.75;5114592;27;45874;-66
2022/06/10 01:48:34;;;;;;;;;5.33;5.33;;;;;19.96;51.14;101616.34;5109436;27;45351;-67
2022/06/10 01:51:14;;;;;;;;;3.67;3.00;;;;;20.00;51.12;101623.59;5107477;27;45563;-68
2022/06/10 01:53:48;;;;;;;;;6.33;6.33;;;;;19.87;51.11;101600.97;5110347;27;45388;-67
2022/06/10 01:56:26;;;;;;;;;2.67;2.67;;;;;20.03;51.01;101620.91;5116834;27;46146;-67
2022/06/10 01:59:17;;;;;;;;;5.67;2.00;;;;;20.00;51.09;101620.88;5122449;27;45079;-68
2022/06/10 02:01:50;;;;;;;;;6.00;6.00;;;;;20.00;51.29;101623.59;5114670;27;45283;-68
2022/06/10 02:04:18;;;;;;;;;4.33;3.00;;;;;20.01;51.07;101617.25;5120543;27;45441;-67
2022/06/10 02:06:58;;;;;;;;;3.00;3.00;;;;;20.02;51.25;101617.25;5104027;27;46284;-68
2022/06/10 02:09:38;;;;;;;;;5.00;4.00;;;;;20.00;51.26;101620.88;5118785;27;45317;-67
2022/06/10 02:12:14;;;;;;;;;6.67;6.67;;;;;20.01;51.32;101630.81;5133619;27;45175;-67
2022/06/10 02:14:51;;;;;;;;;5.00;5.00;;;;;20.01;51.24;101625.38;5121290;27;45203;-69
2022/06/10 02:17:23;;;;;;;;;7.00;5.00;;;;;19.91;51.12;101604.59;5096829;27;45632;-67
2022/06/10 02:19:58;;;;;;;;;8.67;4.00;;;;;20.03;50.93;101627.22;5114127;27;45240;-68
2022/06/10 02:22:45;;;;;;;;;4.00;3.00;;;;;20.03;50.92;101624.50;5100711;27;45444;-67
2022/06/10 02:25:20;;;;;;;;;4.00;4.00;;;;;20.00;51.27;101616.34;5113169;27;45389;-68
2022/06/10 02:28:00;;;;;;;;;5.00;3.33;;;;;19.89;50.82;101593.72;5111814;27;46629;-69
2022/06/10 02:30:31;;;;;;;;;3.67;3.67;;;;;20.01;50.86;101617.25;5119325;27;45118;-66
2022/06/10 02:32:58;;;;;;;;;5.00;4.00;;;;;20.00;50.88;101616.34;5131892;27;45038;-69
2022/06/10 02:35:29;;;;;;;;;3.00;3.00;;;;;19.97;50.99;101616.34;5123251;27;45559;-67
2022/06/10 02:38:09;;;;;;;;;3.67;3.67;;;;;19.96;50.84;101613.63;5087342;27;46306;-68
2022/06/10 02:41:09;;;;;;;;;3.33;3.33;;;;;19.91;50.98;101626.28;5107751;27;45306;-70
2022/06/10 02:44:00;;;;;;;;;3.00;3.00;;;;;19.69;51.25;101591.84;5119670;27;45461;-68
2022/06/10 02:46:49;;;;;;;;;4.67;3.67;;;;;19.86;51.40;101638.03;5122224;27;45155;-68
2022/06/10 02:49:18;;;;;;;;;5.00;4.00;;;;;19.82;51.48;101633.50;5114585;27;45971;-68
2022/06/10 02:51:46;;;;;;;;;5.00;5.00;;;;;19.76;51.67;101630.75;5113303;27;45039;-69
2022/06/10 02:54:15;;;;;;;;;4.67;4.67;;;;;19.72;51.60;101630.75;5111600;27;45145;-69
2022/06/10 02:56:41;;;;;;;;;4.33;4.33;;;;;19.70;51.70;101639.75;5113445;27;45221;-69
2022/06/10 03:02:18;;;;;;;;;5.00;5.00;;;;;19.51;51.65;101627.94;5118320;27;45196;-69
2022/06/10 03:04:50;;;;;;;;;7.33;3.67;;;;;19.58;51.67;101637.00;5112931;27;45051;-68
2022/06/10 03:07:23;;;;;;;;;7.00;5.67;;;;;19.46;51.90;101620.72;5116736;27;45326;-68
2022/06/10 03:10:02;;;;;;;;;3.33;3.33;;;;;19.60;51.86;101646.06;5117890;27;45382;-69
2022/06/10 03:12:37;;;;;;;;;7.00;5.00;;;;;19.59;51.60;101641.53;5119180;27;45587;-69
2022/06/10 03:15:07;;;;;;;;;4.67;4.33;;;;;19.56;51.61;101638.81;5108607;27;45388;-69
2022/06/10 03:17:54;;;;;;;;;5.00;4.00;;;;;19.54;51.98;101646.03;5115987;27;45108;-69
2022/06/10 03:20:41;;;;;;;;;3.67;3.67;;;;;19.52;51.81;101640.59;5116303;27;45738;-67
2022/06/10 03:23:34;;;;;;;;;7.33;5.00;;;;;19.54;51.82;101639.72;5130205;27;45010;-69
2022/06/10 03:26:14;;;;;;;;;7.33;3.67;;;;;19.52;51.73;101639.72;5111927;27;44932;-66
2022/06/10 03:28:51;;;;;;;;;4.33;3.33;;;;;19.48;52.05;101648.72;5122236;27;45118;-68
2022/06/10 03:31:30;;;;;;;;;4.33;3.00;;;;;19.46;51.95;101645.09;5117639;27;45648;-69
2022/06/10 03:34:03;;;;;;;;;5.33;4.00;;;;;19.45;52.17;101649.63;5119175;27;45375;-69
2022/06/10 03:36:33;;;;;;;;;5.67;5.00;;;;;19.24;52.42;101634.16;5106293;27;45461;-67
2022/06/10 03:39:01;;;;;;;;;5.00;5.00;;;;;19.37;52.58;101656.81;5105792;27;45381;-67
2022/06/10 03:41:33;;;;;;;;;4.00;4.00;;;;;19.36;52.58;101651.38;5109563;27;45752;-68
2022/06/10 03:44:03;;;;;;;;;5.33;5.33;;;;;19.23;52.76;101643.19;5110347;27;45998;-67
2022/06/10 03:46:32;;;;;;;;;4.67;4.67;;;;;18.95;52.89;101599.69;5104804;27;45264;-67
2022/06/10 03:49:01;;;;;;;;;5.00;3.00;;;;;19.22;53.14;101652.22;5111074;27;45202;-67
2022/06/10 03:51:27;;;;;;;;;4.00;3.33;;;;;19.19;53.18;101654.91;5098991;27;46175;-68
2022/06/10 03:53:53;;;;;;;;;3.67;3.00;;;;;19.17;53.24;101648.56;5115301;27;45571;-68
2022/06/10 03:56:22;;;;;;;;;4.33;4.33;;;;;19.14;53.56;101659.41;5114549;27;45955;-70
2022/06/10 03:58:48;;;;;;;;;3.67;2.33;;;;;19.08;53.78;101652.13;5108888;27;45228;-66
2022/06/10 04:01:13;;;;;;;;;3.00;2.33;;;;;19.02;54.04;101651.19;5092767;27;45989;-68
2022/06/10 04:03:38;;;;;;;;;4.67;4.67;;;;;19.02;54.11;101659.31;5110502;27;45304;-66
2022/06/10 04:06:04;;;;;;;;;3.67;3.67;;;;;18.89;54.23;101642.09;5120111;27;45165;-66
2022/06/10 04:08:29;;;;;;;;;3.67;3.00;;;;;19.00;54.36;101658.41;5109663;27;45239;-68
2022/06/10 04:10:55;;;;;;;;;5.67;4.00;;;;;18.86;54.56;101647.47;5113992;27;45078;-66
2022/06/10 04:13:20;;;;;;;;;4.33;4.00;;;;;18.93;54.53;101658.38;5108831;27;45456;-66
2022/06/10 04:15:47;;;;;;;;;4.00;3.00;;;;;18.97;54.41;101672.81;5105062;27;45374;-67
2022/06/10 04:18:13;;;;;;;;;3.00;3.00;;;;;18.99;54.61;101668.34;5121756;27;45863;-68
2022/06/10 04:20:40;;;;;;;;;4.00;4.00;;;;;19.00;54.56;101672.84;5119602;27;46365;-69
2022/06/10 04:23:06;;;;;;;;;4.67;4.00;;;;;18.99;54.83;101662.94;5110870;27;46137;-68
2022/06/10 04:25:33;;;;;;;;;4.00;4.00;;;;;18.96;54.95;101671.03;5114467;27;45154;-66
2022/06/10 04:27:59;;;;;;;;;5.00;5.00;;;;;18.55;54.83;101610.25;5107363;27;45483;-67
2022/06/10 04:30:29;;;;;;;;;6.33;5.00;;;;;18.88;55.00;101668.25;5118326;27;46220;-68
2022/06/10 04:32:55;;;;;;;;;2.33;2.33;;;;;18.68;55.07;101635.59;5115192;27;45217;-66
2022/06/10 04:35:21;;;;;;;;;8.67;3.33;;;;;18.90;55.25;101674.59;5114020;27;45351;-69
2022/06/10 04:37:48;;;;;;;;;4.33;4.33;;;;;18.89;55.51;101678.22;5106268;27;45496;-67
2022/06/10 04:40:17;;;;;;;;;10.33;5.67;;;;;18.91;55.46;101670.09;5115279;27;45923;-66
2022/06/10 04:42:43;;;;;;;;;4.33;4.33;;;;;18.86;55.40;101671.84;5117591;27;46127;-66
2022/06/10 04:45:09;;;;;;;;;7.00;5.00;;;;;18.84;55.23;101665.50;5097157;27;45674;-66
2022/06/10 04:47:35;;;;;;;;;8.00;3.00;;;;;18.96;55.44;101676.44;5114156;27;45460;-67
2022/06/10 04:50:01;;;;;;;;;4.67;4.00;;;;;18.98;55.39;101679.16;5099153;27;46163;-67
2022/06/10 04:52:30;;;;;;;;;4.67;3.33;;;;;18.76;55.54;101644.69;5107141;27;45335;-68
2022/06/10 04:54:55;;;;;;;;;5.67;3.00;;;;;18.97;55.44;101672.81;5103112;27;45508;-69
2022/06/10 04:57:21;;;;;;;;;12.00;8.00;;;;;19.01;55.46;101680.09;5103120;27;45647;-68
2022/06/10 04:59:47;;;;;;;;;6.67;4.33;;;;;19.05;55.16;101681.00;5111172;27;45704;-66
2022/06/10 05:02:13;;;;;;;;;5.00;4.00;;;;;19.07;55.19;101676.50;5110965;27;45599;-67
2022/06/10 05:04:38;;;;;;;;;6.00;4.00;;;;;19.09;55.54;101681.03;5108783;27;45443;-68
2022/06/10 05:07:04;;;;;;;;;4.33;4.00;;;;;19.06;55.27;101674.72;5100280;27;45516;-66
2022/06/10 05:09:29;;;;;;;;;6.00;4.67;;;;;19.08;55.23;101676.50;5103843;27;45575;-68
2022/06/10 05:11:55;;;;;;;;;5.00;5.00;;;;;19.10;55.32;101680.13;5100468;27;45422;-68
2022/06/10 05:14:20;;;;;;;;;15.00;12.33;;;;;19.01;55.47;101657.53;5095755;27;45410;-67
2022/06/10 05:16:46;;;;;;;;;11.67;8.00;;;;;19.11;55.49;101679.25;5099050;27;45643;-67
2022/06/10 05:19:11;;;;;;;;;14.33;8.33;;;;;19.12;55.47;101677.44;5096523;27;45492;-69
2022/06/10 05:21:37;;;;;;;;;9.33;8.00;;;;;18.66;55.70;101591.38;5102500;27;45415;-68
2022/06/10 05:24:02;;;;;;;;;7.00;5.00;;;;;19.14;55.63;101678.38;5103620;27;45633;-70
2022/06/10 05:26:29;;;;;;;;;6.00;3.67;;;;;19.12;55.49;101667.53;5108113;27;45538;-68
2022/06/10 05:28:56;;;;;;;;;9.00;8.00;;;;;19.21;55.75;101684.72;5111455;27;45519;-67
2022/06/10 05:31:21;;;;;;;;;6.00;4.00;;;;;19.20;55.52;101677.47;5106307;27;45641;-69
2022/06/10 05:36:31;;;;;;;;;6.00;4.33;;;;;19.13;55.50;101673.84;5106409;27;45437;-68
2022/06/10 05:38:56;;;;;;;;;7.00;5.00;;;;;19.05;55.63;101656.63;5109384;27;45260;-68
2022/06/10 05:44:06;;;;;;;;;8.67;6.00;;;;;19.29;55.50;101683.88;5112407;27;45060;-69
2022/06/10 05:46:31;;;;;;;;;12.00;9.00;;;;;19.33;55.72;101688.38;5109575;27;45477;-68
2022/06/10 05:48:57;;;;;;;;;11.00;11.00;;;;;19.38;55.54;101687.53;5094985;27;45699;-70
2022/06/10 05:51:22;;;;;;;;;8.33;5.00;;;;;19.41;55.43;101687.53;5095562;27;45473;-69
2022/06/10 05:53:47;;;;;;;;;6.00;2.33;;;;;19.38;55.20;101679.38;5096193;27;45416;-69
2022/06/10 05:56:13;;;;;;;;;4.00;4.00;;;;;19.46;55.39;101696.59;5078196;27;45298;-67
2022/06/10 05:58:38;;;;;;;;;6.00;4.33;;;;;19.51;55.47;101702.94;5096311;27;45444;-68
2022/06/10 06:01:05;;;;;;;;;6.67;6.00;;;;;19.51;55.14;101714.69;5094570;27;45383;-66
2022/06/10 06:03:30;;;;;;;;;9.33;5.67;;;;;19.54;55.25;101716.50;5096153;27;45394;-69
2022/06/10 06:05:55;;;;;;;;;4.33;4.33;;;;;19.57;55.40;101707.47;5095400;27;45423;-68
2022/06/10 06:08:21;;;;;;;;;4.67;4.67;;;;;19.59;55.35;101713.81;5098943;27;50101;-69
2022/06/10 06:10:46;;;;;;;;;5.67;4.00;;;;;19.61;55.39;101718.34;5095107;27;45536;-68
2022/06/10 06:13:11;;;;;;;;;5.00;4.00;;;;;19.61;55.07;101721.06;5095824;27;45330;-69
2022/06/10 06:15:40;;;;;;;;;7.33;5.33;;;;;19.51;55.13;101705.66;5095679;27;45482;-68
2022/06/10 06:18:05;;;;;;;;;3.00;3.00;;;;;19.66;55.22;101727.41;5095785;27;45942;-68
2022/06/10 06:20:31;;;;;;;;;4.67;4.67;;;;;19.67;55.17;101725.63;5096563;27;45710;-66
2022/06/10 06:22:57;;;;;;;;;2.00;2.00;;;;;19.65;55.12;101711.13;5116123;27;45178;-67
2022/06/10 06:25:23;;;;;;;;;6.00;4.00;;;;;19.66;55.05;101719.25;5101240;27;45550;-68
2022/06/10 06:27:49;;;;;;;;;6.67;3.67;;;;;19.72;55.15;101718.41;5099313;27;46285;-68
2022/06/10 06:30:26;;;;;;;;;6.67;4.00;;;;;19.72;54.79;101723.81;5094960;27;45418;-68
2022/06/10 06:32:52;;;;;;;;;6.33;4.00;;;;;19.79;54.72;101731.09;5101311;27;45428;-69
2022/06/10 06:35:17;;;;;;;;;6.67;3.00;;;;;19.80;54.49;101721.16;5095336;27;45345;-68
2022/06/10 06:37:42;;;;;;;;;8.33;5.00;;;;;19.87;54.45;101731.16;5094766;27;46079;-69
2022/06/10 06:40:10;;;;;;;;;4.00;3.33;;;;;19.93;54.26;101725.75;5095355;27;45381;-69
2022/06/10 06:42:36;;;;;;;;;3.00;3.00;;;;;19.91;54.49;101724.81;5095383;27;45397;-69
2022/06/10 06:45:02;;;;;;;;;7.00;4.00;;;;;19.97;54.30;101724.84;5095612;27;45340;-70
2022/06/10 06:47:28;;;;;;;;;4.67;3.00;;;;;20.00;54.22;101723.97;5079536;27;48505;-69
2022/06/10 06:49:53;;;;;;;;;6.67;5.00;;;;;19.99;54.21;101720.31;5098881;27;45383;-69
2022/06/10 06:52:18;;;;;;;;;2.67;2.33;;;;;19.94;54.08;101705.84;5099232;27;45594;-68
2022/06/10 06:54:44;;;;;;;;;4.33;4.33;;;;;20.11;53.83;101721.25;5106114;27;45526;-69
2022/06/10 06:57:09;;;;;;;;;7.00;4.00;;;;;20.17;53.93;101726.72;5098954;27;52846;-69
2022/06/10 06:59:34;;;;;;;;;3.00;3.00;;;;;20.01;53.88;101691.41;5092820;27;45661;-70
2022/06/10 07:02:00;;;;;;;;;4.00;4.00;;;;;20.10;53.62;101695.06;5101275;27;46978;-71
2022/06/10 07:04:25;;;;;;;;;3.33;3.33;;;;;20.33;53.17;101724.94;5098004;27;45449;-68
2022/06/10 07:06:51;;;;;;;;;6.33;4.33;;;;;20.41;53.11;101720.44;5097623;27;45983;-69
2022/06/10 07:09:16;;;;;;;;;7.00;4.33;;;;;20.40;52.62;101724.03;5082332;27;45800;-68
2022/06/10 07:11:41;;;;;;;;;6.33;3.67;;;;;20.49;52.46;101734.91;5103732;27;45441;-69
2022/06/10 07:14:07;;;;;;;;;7.33;2.67;;;;;20.54;51.57;101727.69;5101957;27;45282;-70
2022/06/10 07:16:32;;;;;;;;;3.67;3.33;;;;;20.56;51.23;101731.28;5108062;27;45708;-68
2022/06/10 07:18:58;;;;;;;;;3.00;2.00;;;;;20.62;51.02;101730.38;5103377;27;45474;-68
2022/06/10 07:21:23;;;;;;;;;3.33;3.33;;;;;20.32;51.46;101672.44;5097549;27;45551;-67
2022/06/10 07:23:49;;;;;;;;;3.00;3.00;;;;;20.36;51.56;101659.78;5080435;27;45518;-69
2022/06/10 07:26:15;;;;;;;;;5.00;4.00;;;;;20.82;50.99;101722.25;5106807;27;45542;-68
2022/06/10 07:28:41;;;;;;;;;5.33;4.00;;;;;20.51;50.47;101667.03;5100472;27;45634;-71
2022/06/10 07:31:07;;;;;;;;;2.00;2.00;;;;;20.75;50.35;101701.47;5099344;27;45354;-69
2022/06/10 07:33:35;;;;;;;;;5.67;4.33;;;;;20.91;50.77;101730.41;5106310;27;45687;-70
2022/06/10 07:36:02;;;;;;;;;2.67;2.00;;;;;21.02;49.83;101729.50;5105850;27;46074;-68
2022/06/10 07:38:27;;;;;;;;;2.00;2.00;;;;;21.09;49.14;101726.78;5106615;27;45664;-69
2022/06/10 07:43:38;;;;;;;;;4.00;4.00;;;;;21.41;48.59;101738.50;5103344;27;45512;-68
2022/06/10 07:46:06;;;;;;;;;3.67;3.00;;;;;21.47;48.46;101736.69;5095601;27;46173;-67
2022/06/10 07:48:32;;;;;;;;;5.67;5.67;;;;;21.39;48.43;101713.13;5104719;27;45525;-70
2022/06/10 07:50:57;;;;;;;;;9.33;7.33;;;;;21.68;48.40;101741.16;5095977;27;45491;-68
2022/06/10 07:53:23;;;;;;;;;4.33;4.00;;;;;21.79;47.77;101735.66;5097613;27;45292;-69
2022/06/10 07:55:48;;;;;;;;;4.33;4.00;;;;;21.84;47.30;101733.81;5105180;27;46148;-69
2022/06/10 07:58:16;;;;;;;;;5.67;2.67;;;;;21.86;46.83;101748.34;5107982;27;45507;-70
2022/06/10 08:00:42;;;;;;;;;4.00;3.33;;;;;21.90;47.00;101727.47;5104647;27;45312;-69
2022/06/10 08:03:07;;;;;;;;;6.00;4.33;;;;;21.75;47.15;101708.50;5093789;27;45473;-68
2022/06/10 08:05:33;;;;;;;;;2.00;2.00;;;;;21.96;46.92;101730.16;5097197;27;45520;-67
2022/06/10 08:08:01;;;;;;;;;3.00;3.00;;;;;21.85;46.86;101697.56;5106808;27;45471;-70
2022/06/10 08:10:31;;;;;;;;;4.00;2.00;;;;;22.08;46.74;101726.47;5101642;27;45432;-68
2022/06/10 08:12:56;;;;;;;;;3.00;3.00;;;;;22.12;46.73;101730.06;5102061;27;45594;-70
2022/06/10 08:15:23;;;;;;;;;17.33;11.33;;;;;22.15;46.44;101724.59;5107412;27;46220;-69
2022/06/10 08:17:49;;;;;;;;;3.67;2.00;;;;;22.21;45.84;101724.59;5099622;27;45954;-69
2022/06/10 08:20:21;;;;;;;;;2.00;2.00;;;;;22.31;45.47;101718.19;5101626;27;45344;-68
2022/06/10 08:22:47;;;;;;;;;4.00;3.00;;;;;22.41;45.52;101717.19;5103657;27;45429;-65
2022/06/10 08:25:13;;;;;;;;;3.00;2.00;;;;;22.51;45.65;101714.41;5104350;27;45592;-67
2022/06/10 08:27:39;;;;;;;;;2.33;2.00;;;;;22.54;45.32;101717.13;5104127;27;46250;-69
2022/06/10 08:30:08;;;;;;;;;5.33;3.33;;;;;22.59;45.29;101718.88;5107874;27;45431;-68
2022/06/10 08:32:33;;;;;;;;;3.00;2.67;;;;;22.70;44.90;101720.59;5100220;27;45484;-67
2022/06/10 08:34:59;;;;;;;;;3.00;2.00;;;;;22.63;44.53;101689.78;5097136;27;46275;-66
2022/06/10 08:37:24;;;;;;;;;2.67;2.67;;;;;22.69;44.42;101680.69;5094910;27;45392;-67
2022/06/10 08:39:49;;;;;;;;;2.67;1.00;;;;;22.74;43.99;101674.25;5105244;27;45460;-69
2022/06/10 08:42:29;;;;;;;;;2.00;2.00;;;;;22.93;43.96;101702.25;5096666;27;45409;-69
2022/06/10 08:44:57;;;;;;;;;3.00;3.00;;;;;22.93;43.17;101699.53;5105254;27;45615;-69
2022/06/10 08:47:40;;;;;;;;;3.33;3.00;;;;;22.93;42.82;101715.88;5102864;27;45413;-70
2022/06/10 08:50:29;;;;;;;;;4.00;2.00;;;;;22.89;42.47;101710.47;5099221;27;45351;-68
2022/06/10 08:53:13;;;;;;;;;2.00;2.00;;;;;22.81;42.69;101708.69;5107020;27;45641;-69
2022/06/10 08:55:47;;;;;;;;;2.00;2.00;;;;;22.80;42.73;101704.19;5104016;27;45650;-70
2022/06/10 08:58:32;;;;;;;;;5.33;3.00;;;;;22.72;42.79;101703.34;5104352;27;45475;-68
2022/06/10 09:01:04;;;;;;;;;5.00;4.67;;;;;22.83;42.56;101722.31;5102079;27;45818;-67
2022/06/10 09:03:54;;;;;;;;;1.67;1.67;;;;;22.93;42.73;101709.50;5083460;27;45420;-67
2022/06/10 09:06:28;;;;;;;;;2.00;2.00;;;;;22.97;42.25;101701.28;5102104;27;45347;-66
2022/06/10 09:09:00;;;;;;;;;4.00;2.67;;;;;23.07;42.07;101703.97;5116577;27;45181;-67
2022/06/10 09:11:33;;;;;;;;;5.67;2.00;;;;;23.14;42.14;101708.44;5105982;27;45355;-69
2022/06/10 09:14:14;;;;;;;;;5.00;3.00;;;;;23.25;42.35;101698.31;5101987;27;45501;-67
2022/06/10 09:16:49;;;;;;;;;5.33;3.00;;;;;23.47;41.83;101701.69;5098261;27;46408;-64
2022/06/10 09:19:43;;;;;;;;;2.00;1.00;;;;;23.66;41.42;101698.72;5099992;27;45480;-68
2022/06/10 09:22:14;;;;;;;;;2.00;2.00;;;;;23.80;41.44;101696.72;5104641;27;45474;-68
2022/06/10 09:25:01;;;;;;;;;1.67;1.33;;;;;23.83;39.95;101688.53;5099992;27;45566;-66
2022/06/10 09:27:32;;;;;;;;;1.00;1.00;;;;;23.85;39.84;101688.50;5111592;27;46547;-69
2022/06/10 09:30:02;;;;;;;;;6.00;2.00;;;;;23.82;40.02;101689.44;5098032;27;45450;-66
2022/06/10 09:32:35;;;;;;;;;7.00;2.00;;;;;23.82;40.81;101689.44;5102065;27;45696;-69
2022/06/10 09:35:10;;;;;;;;;1.00;1.00;;;;;23.73;40.26;101698.63;5095906;27;45405;-69
2022/06/10 09:37:38;;;;;;;;;1.33;1.00;;;;;23.63;39.80;101698.78;5113305;27;47035;-69
2022/06/10 09:40:37;;;;;;;;;2.00;2.00;;;;;23.61;40.25;101708.78;5109204;27;45420;-67
2022/06/10 09:43:09;;;;;;;;;3.00;3.00;;;;;23.62;40.52;101702.44;5108679;27;45486;-68
2022/06/10 09:45:56;;;;;;;;;4.00;2.00;;;;;23.71;40.58;101697.75;5096706;27;45275;-69
2022/06/10 09:48:40;;;;;;;;;2.00;1.00;;;;;23.86;40.08;101696.69;5096001;27;46149;-66
2022/06/10 09:51:48;;;;;;;;;2.00;2.00;;;;;23.99;39.42;101707.41;5109868;27;45440;-69
2022/06/10 09:54:38;;;;;;;;;2.00;0.33;;;;;24.00;39.34;101715.56;5096993;27;45386;-65
2022/06/10 09:57:11;;;;;;;;;0.67;0.67;;;;;23.98;39.31;101713.81;5112638;27;45524;-69
2022/06/10 09:59:47;;;;;;;;;4.00;2.33;;;;;23.97;39.02;101714.72;5111942;27;46144;-65
2022/06/10 10:02:31;;;;;;;;;1.33;1.00;;;;;23.98;38.74;101709.25;5099327;27;45509;-68
2022/06/10 10:05:16;;;;;;;;;3.67;3.00;;;;;23.97;39.18;101712.88;5092078;27;48162;-66
2022/06/10 10:07:41;;;;;;;;;4.00;2.33;;;;;23.98;39.54;101716.53;5101889;27;45587;-67
2022/06/10 10:10:13;;;;;;;;;5.00;3.33;;;;;23.98;39.75;101719.28;5101752;27;46495;-66
2022/06/10 10:12:53;;;;;;;;;5.67;5.67;;;;;24.02;40.31;101705.56;5102546;27;45564;-66
2022/06/10 10:15:34;;;;;;;;;3.00;3.00;;;;;24.07;40.46;101709.13;5098590;27;45509;-67
2022/06/10 10:18:11;;;;;;;;;2.00;0.33;;;;;24.14;40.56;101722.66;5103190;27;45559;-66
2022/06/10 10:20:56;;;;;;;;;1.00;1.00;;;;;24.19;40.66;101720.81;5097850;27;46443;-67
2022/06/10 10:23:30;;;;;;;;;3.00;3.00;;;;;24.24;40.46;101721.63;5097343;27;47692;-66
2022/06/10 10:25:55;;;;;;;;;2.00;2.00;;;;;24.22;41.07;101715.25;5102336;27;45745;-68
2022/06/10 10:28:23;;;;;;;;;2.33;2.33;;;;;24.29;40.79;101722.47;5105900;27;45416;-68
2022/06/10 10:31:09;;;;;;;;;4.00;3.00;;;;;24.02;41.11;101659.16;5083607;27;46085;-66
2022/06/10 10:33:35;;;;;;;;;8.67;5.33;;;;;24.38;41.11;101710.47;5120488;27;45519;-69
2022/06/10 10:36:05;;;;;;;;;5.00;3.00;;;;;24.35;41.24;101707.78;5112006;27;45392;-67
2022/06/10 10:38:32;;;;;;;;;7.67;3.33;;;;;24.33;41.54;101707.81;5107427;27;45524;-70
2022/06/10 10:40:59;;;;;;;;;5.67;3.00;;;;;24.19;41.74;101701.69;5096471;27;45585;-68
2022/06/10 10:43:28;;;;;;;;;4.00;4.00;;;;;24.24;42.59;101707.97;5096525;27;45443;-69
2022/06/10 10:46:04;;;;;;;;;4.00;2.00;;;;;24.28;42.52;101717.91;5097198;27;45505;-66
2022/06/10 10:48:36;;;;;;;;;15.00;9.67;;;;;24.29;42.68;101704.25;5101548;27;45349;-66
2022/06/10 10:51:21;;;;;;;;;6.00;6.00;;;;;23.91;42.32;101637.47;5098174;27;45377;-67
2022/06/10 10:53:56;;;;;;;;;3.00;2.67;;;;;24.34;42.64;101703.28;5094643;27;45307;-67
2022/06/10 10:56:40;;;;;;;;;10.33;7.00;;;;;24.31;42.79;101706.94;5094736;27;45479;-67
2022/06/10 10:59:21;;;;;;;;;3.33;2.33;;;;;24.27;42.84;101707.94;5094944;27;45362;-71
2022/06/10 11:01:47;;;;;;;;;6.33;4.67;;;;;24.27;43.08;101718.84;5107553;27;45416;-69
2022/06/10 11:04:23;;;;;;;;;5.00;3.00;;;;;24.16;42.79;101704.47;5113252;27;45390;-68
2022/06/10 11:07:00;;;;;;;;;3.00;3.00;;;;;24.12;43.20;101705.41;5114256;27;45476;-66
2022/06/10 11:09:26;;;;;;;;;4.33;3.33;;;;;23.98;43.10;101672.88;5105973;27;45465;-68
2022/06/10 11:11:53;;;;;;;;;4.00;4.00;;;;;24.12;43.16;101687.19;5098835;27;45565;-65
2022/06/10 11:14:35;;;;;;;;;8.33;6.67;;;;;24.27;43.09;101707.94;5107845;27;45569;-65
2022/06/10 11:17:11;;;;;;;;;3.67;3.67;;;;;24.33;42.91;101712.38;5095703;27;45404;-68
2022/06/10 11:19:37;;;;;;;;;5.33;4.33;;;;;24.35;42.55;101705.97;5099154;27;45398;-68
2022/06/10 11:22:02;;;;;;;;;7.00;3.00;;;;;24.33;43.18;101707.81;5097840;27;45381;-67
2022/06/10 11:24:32;;;;;;;;;3.33;2.67;;;;;24.28;43.13;101712.44;5103710;27;45380;-66
2022/06/10 11:27:15;;;;;;;;;4.67;2.67;;;;;24.20;43.41;101708.94;5103107;27;45433;-67
2022/06/10 11:29:41;;;;;;;;;4.67;3.33;;;;;24.22;43.30;101713.47;5098313;27;45626;-66
2022/06/10 11:32:10;;;;;;;;;3.00;3.00;;;;;24.19;42.92;101701.69;5101493;27;46224;-68
2022/06/10 11:34:40;;;;;;;;;4.33;4.33;;;;;24.17;43.11;101701.72;5106719;27;45312;-67
2022/06/10 11:37:30;;;;;;;;;3.00;3.00;;;;;24.21;42.47;101708.91;5113810;27;45475;-68
2022/06/10 11:40:12;;;;;;;;;7.33;4.33;;;;;24.26;42.26;101707.00;5096525;27;45418;-65
2022/06/10 11:42:50;;;;;;;;;5.00;3.00;;;;;24.20;42.08;101701.63;5106385;27;45463;-68
2022/06/10 11:45:37;;;;;;;;;3.00;3.00;;;;;24.07;42.64;101683.63;5100447;27;45403;-67
2022/06/10 11:48:18;;;;;;;;;5.67;4.33;;;;;24.14;42.51;101704.47;5106933;27;45621;-67
2022/06/10 11:50:50;;;;;;;;;5.33;4.33;;;;;24.17;43.37;101692.59;5093084;27;45335;-67
2022/06/10 11:53:33;;;;;;;;;3.00;3.00;;;;;24.26;43.12;101695.19;5102026;27;46177;-65
2022/06/10 12:01:46;;;;;;;;;1.33;1.33;;;;;24.64;42.50;101694.59;5093405;27;45330;-68